sensor_id;sensor_type;location;lat;lon;timestamp;pressure;altitude;pressure_sealevel;temperature
45565;BMP280;31280;40.408;17.282;2022-12-29T00:02:18;102367.53;;;11.99
45565;BMP280;31280;40.408;17.282;2022-12-29T00:04:44;102371.41;;;11.98
45565;BMP280;31280;40.408;17.282;2022-12-29T00:07:10;102374.50;;;11.96
45565;BMP280;31280;40.408;17.282;2022-12-29T00:09:36;102372.56;;;11.97
45565;BMP280;31280;40.408;17.282;2022-12-29T00:12:03;102372.56;;;11.97
45565;BMP280;31280;40.408;17.282;2022-12-29T00:14:29;102366.72;;;11.91
45565;BMP280;31280;40.408;17.282;2022-12-29T00:17:15;102369.88;;;12.00
45565;BMP280;31280;40.408;17.282;2022-12-29T00:19:40;102372.63;;;12.03
45565;BMP280;31280;40.408;17.282;2022-12-29T00:22:25;102381.50;;;12.07
45565;BMP280;31280;40.408;17.282;2022-12-29T00:25:11;102375.31;;;12.03
45565;BMP280;31280;40.408;17.282;2022-12-29T00:27:56;102317.66;;;11.72
45565;BMP280;31280;40.408;17.282;2022-12-29T00:30:40;102378.41;;;12.12
45565;BMP280;31280;40.408;17.282;2022-12-29T00:33:32;102366.06;;;12.08
45565;BMP280;31280;40.408;17.282;2022-12-29T00:36:25;102362.59;;;12.07
45565;BMP280;31280;40.408;17.282;2022-12-29T00:39:04;102388.53;;;12.22
45565;BMP280;31280;40.408;17.282;2022-12-29T00:41:50;102394.31;;;12.24
45565;BMP280;31280;40.408;17.282;2022-12-29T00:44:34;102385.44;;;12.27
45565;BMP280;31280;40.408;17.282;2022-12-29T00:47:00;102385.06;;;12.29
45565;BMP280;31280;40.408;17.282;2022-12-29T00:49:28;102370.38;;;12.23
45565;BMP280;31280;40.408;17.282;2022-12-29T00:52:12;102388.16;;;12.34
45565;BMP280;31280;40.408;17.282;2022-12-29T00:54:40;102374.63;;;12.27
45565;BMP280;31280;40.408;17.282;2022-12-29T00:57:07;102388.56;;;12.36
45565;BMP280;31280;40.408;17.282;2022-12-29T00:59:37;102386.25;;;12.38
45565;BMP280;31280;40.408;17.282;2022-12-29T01:02:03;102394.75;;;12.40
45565;BMP280;31280;40.408;17.282;2022-12-29T01:04:29;102368.47;;;12.30
45565;BMP280;31280;40.408;17.282;2022-12-29T01:06:55;102383.94;;;12.40
45565;BMP280;31280;40.408;17.282;2022-12-29T01:09:21;102390.13;;;12.40
45565;BMP280;31280;40.408;17.282;2022-12-29T01:12:06;102389.34;;;12.40
45565;BMP280;31280;40.408;17.282;2022-12-29T01:14:33;102390.88;;;12.41
45565;BMP280;31280;40.408;17.282;2022-12-29T01:16:59;102392.03;;;12.40
45565;BMP280;31280;40.408;17.282;2022-12-29T01:19:25;102394.38;;;12.41
45565;BMP280;31280;40.408;17.282;2022-12-29T01:21:51;102393.97;;;12.43
45565;BMP280;31280;40.408;17.282;2022-12-29T01:24:18;102394.78;;;12.43
45565;BMP280;31280;40.408;17.282;2022-12-29T01:26:44;102372.34;;;12.36
45565;BMP280;31280;40.408;17.282;2022-12-29T01:29:11;102395.91;;;12.46
45565;BMP280;31280;40.408;17.282;2022-12-29T01:31:37;102397.47;;;12.47
45565;BMP280;31280;40.408;17.282;2022-12-29T01:34:03;102398.25;;;12.47
45565;BMP280;31280;40.408;17.282;2022-12-29T01:36:29;102391.69;;;12.48
45565;BMP280;31280;40.408;17.282;2022-12-29T01:38:56;102393.63;;;12.48
45565;BMP280;31280;40.408;17.282;2022-12-29T01:41:22;102371.59;;;12.42
45565;BMP280;31280;40.408;17.282;2022-12-29T01:43:58;102373.88;;;12.37
45565;BMP280;31280;40.408;17.282;2022-12-29T01:49:19;102384.75;;;12.51
45565;BMP280;31280;40.408;17.282;2022-12-29T01:51:55;102390.91;;;12.51
45565;BMP280;31280;40.408;17.282;2022-12-29T01:56:54;102366.22;;;12.49
45565;BMP280;31280;40.408;17.282;2022-12-29T01:59:24;102356.91;;;12.40
45565;BMP280;31280;40.408;17.282;2022-12-29T02:01:52;102366.97;;;12.50
45565;BMP280;31280;40.408;17.282;2022-12-29T02:04:18;102364.28;;;12.50
45565;BMP280;31280;40.408;17.282;2022-12-29T02:06:53;102363.13;;;12.51
45565;BMP280;31280;40.408;17.282;2022-12-29T02:09:20;102358.88;;;12.50
45565;BMP280;31280;40.408;17.282;2022-12-29T02:11:46;102357.72;;;12.51
45565;BMP280;31280;40.408;17.282;2022-12-29T02:14:13;102360.00;;;12.52
45565;BMP280;31280;40.408;17.282;2022-12-29T02:43:38;102354.22;;;12.50
45565;BMP280;31280;40.408;17.282;2022-12-29T02:46:17;102350.75;;;12.50
45565;BMP280;31280;40.408;17.282;2022-12-29T02:48:55;102348.06;;;12.50
45565;BMP280;31280;40.408;17.282;2022-12-29T02:51:45;102350.75;;;12.50
45565;BMP280;31280;40.408;17.282;2022-12-29T02:54:13;102350.75;;;12.50
45565;BMP280;31280;40.408;17.282;2022-12-29T02:56:57;102350.75;;;12.50
45565;BMP280;31280;40.408;17.282;2022-12-29T02:59:23;102346.91;;;12.51
45565;BMP280;31280;40.408;17.282;2022-12-29T03:07:32;102353.09;;;12.55
45565;BMP280;31280;40.408;17.282;2022-12-29T03:12:34;102354.22;;;12.57
45565;BMP280;31280;40.408;17.282;2022-12-29T03:15:23;102347.28;;;12.60
45565;BMP280;31280;40.408;17.282;2022-12-29T03:21:11;102348.50;;;12.62
45565;BMP280;31280;40.408;17.282;2022-12-29T03:23:42;102343.84;;;12.63
45565;BMP280;31280;40.408;17.282;2022-12-29T03:26:11;102339.22;;;12.63
45565;BMP280;31280;40.408;17.282;2022-12-29T03:28:47;102338.41;;;12.59
45565;BMP280;31280;40.408;17.282;2022-12-29T03:31:15;102343.84;;;12.63
45565;BMP280;31280;40.408;17.282;2022-12-29T03:33:42;102346.53;;;12.63
45565;BMP280;31280;40.408;17.282;2022-12-29T03:36:12;102340.75;;;12.61
45565;BMP280;31280;40.408;17.282;2022-12-29T03:38:46;102324.09;;;12.52
45565;BMP280;31280;40.408;17.282;2022-12-29T03:41:17;102343.03;;;12.59
45565;BMP280;31280;40.408;17.282;2022-12-29T03:43:43;102338.78;;;12.54
45565;BMP280;31280;40.408;17.282;2022-12-29T03:46:09;102351.16;;;12.59
45565;BMP280;31280;40.408;17.282;2022-12-29T03:48:35;102350.78;;;12.57
45565;BMP280;31280;40.408;17.282;2022-12-29T03:51:00;102356.94;;;12.57
45565;BMP280;31280;40.408;17.282;2022-12-29T03:53:26;102353.09;;;12.55
45565;BMP280;31280;40.408;17.282;2022-12-29T03:55:52;102353.09;;;12.55
45565;BMP280;31280;40.408;17.282;2022-12-29T03:58:17;102355.81;;;12.55
45565;BMP280;31280;40.408;17.282;2022-12-29T04:00:43;102362.34;;;12.54
45565;BMP280;31280;40.408;17.282;2022-12-29T04:03:09;102360.41;;;12.51
45565;BMP280;31280;40.408;17.282;2022-12-29T04:05:35;102363.13;;;12.54
45565;BMP280;31280;40.408;17.282;2022-12-29T04:08:01;102365.44;;;12.56
45565;BMP280;31280;40.408;17.282;2022-12-29T04:10:26;102368.53;;;12.58
45565;BMP280;31280;40.408;17.282;2022-12-29T04:12:52;102363.50;;;12.56
45565;BMP280;31280;40.408;17.282;2022-12-29T04:15:17;102367.38;;;12.59
45565;BMP280;31280;40.408;17.282;2022-12-29T04:17:43;102363.50;;;12.60
45565;BMP280;31280;40.408;17.282;2022-12-29T04:20:09;102352.69;;;12.53
45565;BMP280;31280;40.408;17.282;2022-12-29T04:23:04;102364.72;;;12.62
45565;BMP280;31280;40.408;17.282;2022-12-29T04:25:33;102353.09;;;12.55
45565;BMP280;31280;40.408;17.282;2022-12-29T04:27:59;102360.06;;;12.63
45565;BMP280;31280;40.408;17.282;2022-12-29T04:30:26;102366.25;;;12.63
45565;BMP280;31280;40.408;17.282;2022-12-29T04:32:52;102361.22;;;12.62
45565;BMP280;31280;40.408;17.282;2022-12-29T04:35:18;102356.59;;;12.62
45565;BMP280;31280;40.408;17.282;2022-12-29T04:37:43;102357.31;;;12.52
45565;BMP280;31280;40.408;17.282;2022-12-29T04:40:09;102372.41;;;12.57
45565;BMP280;31280;40.408;17.282;2022-12-29T04:42:35;102370.47;;;12.54
45565;BMP280;31280;40.408;17.282;2022-12-29T04:45:01;102379.34;;;12.51
45565;BMP280;31280;40.408;17.282;2022-12-29T04:47:27;102378.53;;;12.47
45565;BMP280;31280;40.408;17.282;2022-12-29T04:49:53;102367.72;;;12.40
45565;BMP280;31280;40.408;17.282;2022-12-29T04:52:18;102384.75;;;12.44
45565;BMP280;31280;40.408;17.282;2022-12-29T04:54:44;102368.47;;;12.33
45565;BMP280;31280;40.408;17.282;2022-12-29T04:57:10;102361.88;;;12.31
45565;BMP280;31280;40.408;17.282;2022-12-29T04:59:35;102357.25;;;12.25
45565;BMP280;31280;40.408;17.282;2022-12-29T05:02:01;102383.94;;;12.40
45565;BMP280;31280;40.408;17.282;2022-12-29T05:04:27;102385.88;;;12.39
45565;BMP280;31280;40.408;17.282;2022-12-29T05:06:52;102380.06;;;12.34
45565;BMP280;31280;40.408;17.282;2022-12-29T05:09:18;102374.25;;;12.29
45565;BMP280;31280;40.408;17.282;2022-12-29T05:11:44;102392.03;;;12.36
45565;BMP280;31280;40.408;17.282;2022-12-29T05:14:10;102381.19;;;12.26
45565;BMP280;31280;40.408;17.282;2022-12-29T05:16:36;102398.56;;;12.32
45565;BMP280;31280;40.408;17.282;2022-12-29T05:19:01;102391.59;;;12.28
45565;BMP280;31280;40.408;17.282;2022-12-29T05:21:27;102396.28;;;12.31
45565;BMP280;31280;40.408;17.282;2022-12-29T05:23:53;102391.63;;;12.24
45565;BMP280;31280;40.408;17.282;2022-12-29T05:26:19;102406.69;;;12.29
45565;BMP280;31280;40.408;17.282;2022-12-29T05:28:44;102406.28;;;12.27
45565;BMP280;31280;40.408;17.282;2022-12-29T05:31:10;102407.03;;;12.27
45565;BMP280;31280;40.408;17.282;2022-12-29T05:33:35;102410.91;;;12.26
45565;BMP280;31280;40.408;17.282;2022-12-29T05:36:05;102405.13;;;12.24
45565;BMP280;31280;40.408;17.282;2022-12-29T05:38:31;102407.81;;;12.21
45565;BMP280;31280;40.408;17.282;2022-12-29T05:40:57;102413.59;;;12.23
45565;BMP280;31280;40.408;17.282;2022-12-29T05:43:22;102413.22;;;12.21
45565;BMP280;31280;40.408;17.282;2022-12-29T05:45:48;102406.25;;;12.20
45565;BMP280;31280;40.408;17.282;2022-12-29T05:48:15;102396.94;;;12.10
45565;BMP280;31280;40.408;17.282;2022-12-29T05:50:41;102414.34;;;12.16
45565;BMP280;31280;40.408;17.282;2022-12-29T05:53:07;102415.91;;;12.17
45565;BMP280;31280;40.408;17.282;2022-12-29T05:55:33;102417.03;;;12.16
45565;BMP280;31280;40.408;17.282;2022-12-29T05:57:59;102427.84;;;12.16
45565;BMP280;31280;40.408;17.282;2022-12-29T06:00:25;102351.19;;;11.68
45565;BMP280;31280;40.408;17.282;2022-12-29T06:02:51;102416.22;;;12.12
45565;BMP280;31280;40.408;17.282;2022-12-29T06:05:16;102421.28;;;12.14
45565;BMP280;31280;40.408;17.282;2022-12-29T06:07:42;102430.16;;;12.14
45565;BMP280;31280;40.408;17.282;2022-12-29T06:10:08;102434.78;;;12.14
45565;BMP280;31280;40.408;17.282;2022-12-29T06:12:34;102427.03;;;12.12
45565;BMP280;31280;40.408;17.282;2022-12-29T06:14:59;102425.50;;;12.11
45565;BMP280;31280;40.408;17.282;2022-12-29T06:17:25;102427.44;;;12.11
45565;BMP280;31280;40.408;17.282;2022-12-29T06:19:51;102411.56;;;12.02
45565;BMP280;31280;40.408;17.282;2022-12-29T06:22:17;102434.00;;;12.10
45565;BMP280;31280;40.408;17.282;2022-12-29T06:24:42;102412.31;;;11.96
45565;BMP280;31280;40.408;17.282;2022-12-29T06:27:09;102437.06;;;12.08
45565;BMP280;31280;40.408;17.282;2022-12-29T06:29:34;102437.06;;;12.08
45565;BMP280;31280;40.408;17.282;2022-12-29T06:32:03;102428.56;;;12.06
45565;BMP280;31280;40.408;17.282;2022-12-29T06:34:29;102440.94;;;12.07
45565;BMP280;31280;40.408;17.282;2022-12-29T06:36:54;102447.88;;;12.08
45565;BMP280;31280;40.408;17.282;2022-12-29T06:39:20;102453.28;;;12.08
45565;BMP280;31280;40.408;17.282;2022-12-29T06:41:46;102433.94;;;11.96
45565;BMP280;31280;40.408;17.282;2022-12-29T06:44:11;102443.22;;;12.02
45565;BMP280;31280;40.408;17.282;2022-12-29T06:46:37;102395.16;;;11.68
45565;BMP280;31280;40.408;17.282;2022-12-29T06:49:03;102450.97;;;12.07
45565;BMP280;31280;40.408;17.282;2022-12-29T06:51:28;102458.69;;;12.08
45565;BMP280;31280;40.408;17.282;2022-12-29T06:53:54;102446.69;;;12.02
45565;BMP280;31280;40.408;17.282;2022-12-29T06:56:20;102460.25;;;12.09
45565;BMP280;31280;40.408;17.282;2022-12-29T06:58:45;102467.97;;;12.11
45565;BMP280;31280;40.408;17.282;2022-12-29T07:01:11;102466.44;;;12.13
45565;BMP280;31280;40.408;17.282;2022-12-29T07:03:37;102474.94;;;12.15
45565;BMP280;31280;40.408;17.282;2022-12-29T07:06:04;102478.78;;;12.18
45565;BMP280;31280;40.408;17.282;2022-12-29T07:08:29;102478.41;;;12.19
45565;BMP280;31280;40.408;17.282;2022-12-29T07:10:57;102477.28;;;12.20
45565;BMP280;31280;40.408;17.282;2022-12-29T07:13:23;102452.50;;;12.11
45565;BMP280;31280;40.408;17.282;2022-12-29T07:15:48;102484.25;;;12.25
45565;BMP280;31280;40.408;17.282;2022-12-29T07:18:14;102481.56;;;12.31
45565;BMP280;31280;40.408;17.282;2022-12-29T07:20:40;102488.94;;;12.34
45565;BMP280;31280;40.408;17.282;2022-12-29T07:23:05;102492.81;;;12.37
45565;BMP280;31280;40.408;17.282;2022-12-29T07:25:31;102485.09;;;12.35
45565;BMP280;31280;40.408;17.282;2022-12-29T07:27:57;102493.59;;;12.41
45565;BMP280;31280;40.408;17.282;2022-12-29T07:30:22;102501.34;;;12.42
45565;BMP280;31280;40.408;17.282;2022-12-29T07:32:48;102491.66;;;12.45
45565;BMP280;31280;40.408;17.282;2022-12-29T07:35:14;102493.28;;;12.49
45565;BMP280;31280;40.408;17.282;2022-12-29T07:37:40;102496.75;;;12.53
45565;BMP280;31280;40.408;17.282;2022-12-29T07:40:06;102484.38;;;12.49
45565;BMP280;31280;40.408;17.282;2022-12-29T07:42:32;102500.25;;;12.61
45565;BMP280;31280;40.408;17.282;2022-12-29T07:44:58;102487.91;;;12.63
45565;BMP280;31280;40.408;17.282;2022-12-29T07:47:24;102494.50;;;12.72
45565;BMP280;31280;40.408;17.282;2022-12-29T07:49:50;102492.97;;;12.75
45565;BMP280;31280;40.408;17.282;2022-12-29T07:52:16;102490.63;;;12.73
45565;BMP280;31280;40.408;17.282;2022-12-29T07:54:41;102490.22;;;12.71
45565;BMP280;31280;40.408;17.282;2022-12-29T07:57:07;102475.94;;;12.64
45565;BMP280;31280;40.408;17.282;2022-12-29T07:59:33;102491.06;;;12.75
45565;BMP280;31280;40.408;17.282;2022-12-29T08:01:59;102491.03;;;12.79
45565;BMP280;31280;40.408;17.282;2022-12-29T08:04:25;102491.44;;;12.84
45565;BMP280;31280;40.408;17.282;2022-12-29T08:06:50;102496.13;;;12.91
45565;BMP280;31280;40.408;17.282;2022-12-29T08:09:16;102493.00;;;12.95
45565;BMP280;31280;40.408;17.282;2022-12-29T08:11:42;102494.59;;;13.00
45565;BMP280;31280;40.408;17.282;2022-12-29T08:14:10;102485.28;;;12.94
45565;BMP280;31280;40.408;17.282;2022-12-29T08:16:36;102503.09;;;13.09
45565;BMP280;31280;40.408;17.282;2022-12-29T08:19:03;102503.13;;;13.16
45565;BMP280;31280;40.408;17.282;2022-12-29T08:21:30;102498.47;;;13.16
45565;BMP280;31280;40.408;17.282;2022-12-29T08:23:56;102497.72;;;13.22
45565;BMP280;31280;40.408;17.282;2022-12-29T08:26:22;102508.16;;;13.27
45565;BMP280;31280;40.408;17.282;2022-12-29T08:28:47;102507.78;;;13.32
45565;BMP280;31280;40.408;17.282;2022-12-29T08:31:13;102510.13;;;13.37
45565;BMP280;31280;40.408;17.282;2022-12-29T08:33:39;102513.19;;;13.39
45565;BMP280;31280;40.408;17.282;2022-12-29T08:36:06;102512.44;;;13.46
45565;BMP280;31280;40.408;17.282;2022-12-29T08:38:32;102520.56;;;13.49
45565;BMP280;31280;40.408;17.282;2022-12-29T08:40:58;102518.63;;;13.53
45565;BMP280;31280;40.408;17.282;2022-12-29T08:43:26;102503.94;;;13.51
45565;BMP280;31280;40.408;17.282;2022-12-29T08:45:52;102526.75;;;13.63
45565;BMP280;31280;40.408;17.282;2022-12-29T08:48:18;102527.13;;;13.69
45565;BMP280;31280;40.408;17.282;2022-12-29T08:50:46;102524.84;;;13.74
45565;BMP280;31280;40.408;17.282;2022-12-29T08:53:12;102475.69;;;13.45
45565;BMP280;31280;40.408;17.282;2022-12-29T08:55:37;102512.03;;;13.75
45565;BMP280;31280;40.408;17.282;2022-12-29T08:58:03;102524.81;;;13.88
45565;BMP280;31280;40.408;17.282;2022-12-29T09:00:29;102522.47;;;13.93
45565;BMP280;31280;40.408;17.282;2022-12-29T09:02:54;102524.41;;;13.96
45565;BMP280;31280;40.408;17.282;2022-12-29T09:05:20;102532.13;;;14.05
45565;BMP280;31280;40.408;17.282;2022-12-29T09:07:47;102517.81;;;14.08
45565;BMP280;31280;40.408;17.282;2022-12-29T09:10:12;102522.44;;;14.11
45565;BMP280;31280;40.408;17.282;2022-12-29T09:12:38;102513.16;;;14.15
45565;BMP280;31280;40.408;17.282;2022-12-29T09:15:05;102515.06;;;14.18
45565;BMP280;31280;40.408;17.282;2022-12-29T09:17:32;102506.94;;;14.18
45565;BMP280;31280;40.408;17.282;2022-12-29T09:20:08;102489.13;;;14.17
45565;BMP280;31280;40.408;17.282;2022-12-29T09:22:35;102512.25;;;14.39
45565;BMP280;31280;40.408;17.282;2022-12-29T09:25:01;102507.22;;;14.47
45565;BMP280;31280;40.408;17.282;2022-12-29T09:27:27;102504.88;;;14.53
45565;BMP280;31280;40.408;17.282;2022-12-29T09:29:53;102492.88;;;14.50
45565;BMP280;31280;40.408;17.282;2022-12-29T09:32:18;102497.84;;;14.62
45565;BMP280;31280;40.408;17.282;2022-12-29T09:34:44;102500.13;;;14.67
45565;BMP280;31280;40.408;17.282;2022-12-29T09:37:10;102497.00;;;14.72
45565;BMP280;31280;40.408;17.282;2022-12-29T09:39:35;102494.69;;;14.74
45565;BMP280;31280;40.408;17.282;2022-12-29T09:42:08;102499.34;;;14.77
45565;BMP280;31280;40.408;17.282;2022-12-29T09:47:11;102491.94;;;14.81
45565;BMP280;31280;40.408;17.282;2022-12-29T09:49:54;102490.34;;;14.87
45565;BMP280;31280;40.408;17.282;2022-12-29T09:52:28;102487.56;;;14.94
45565;BMP280;31280;40.408;17.282;2022-12-29T09:55:22;102481.34;;;15.00
45565;BMP280;31280;40.408;17.282;2022-12-29T09:57:56;102484.78;;;15.07
45565;BMP280;31280;40.408;17.282;2022-12-29T10:00:33;102477.72;;;15.17
45565;BMP280;31280;40.408;17.282;2022-12-29T10:03:16;102470.63;;;15.29
45565;BMP280;31280;40.408;17.282;2022-12-29T10:05:56;102459.31;;;15.38
45565;BMP280;31280;40.408;17.282;2022-12-29T10:14:38;102464.75;;;15.74
45565;BMP280;31280;40.408;17.282;2022-12-29T10:25:15;102452.28;;;15.80
45565;BMP280;31280;40.408;17.282;2022-12-29T10:27:43;102445.41;;;15.72
45565;BMP280;31280;40.408;17.282;2022-12-29T10:30:13;102440.69;;;15.76
45565;BMP280;31280;40.408;17.282;2022-12-29T10:33:04;102449.13;;;15.85
45565;BMP280;31280;40.408;17.282;2022-12-29T10:35:35;102446.06;;;15.83
45565;BMP280;31280;40.408;17.282;2022-12-29T10:38:15;102445.22;;;15.86
45565;BMP280;31280;40.408;17.282;2022-12-29T10:40:49;102440.53;;;15.86
45565;BMP280;31280;40.408;17.282;2022-12-29T10:43:27;102444.41;;;15.89
45565;BMP280;31280;40.408;17.282;2022-12-29T10:46:01;102442.00;;;15.94
45565;BMP280;31280;40.408;17.282;2022-12-29T10:48:31;102443.16;;;15.97
45565;BMP280;31280;40.408;17.282;2022-12-29T10:51:00;102436.53;;;15.98
45565;BMP280;31280;40.408;17.282;2022-12-29T10:53:33;102445.09;;;15.96
45565;BMP280;31280;40.408;17.282;2022-12-29T10:56:00;102440.44;;;15.97
45565;BMP280;31280;40.408;17.282;2022-12-29T10:58:29;102435.78;;;15.97
45565;BMP280;31280;40.408;17.282;2022-12-29T11:00:55;102431.81;;;16.02
45565;BMP280;31280;40.408;17.282;2022-12-29T11:03:44;102420.94;;;16.02
45565;BMP280;31280;40.408;17.282;2022-12-29T11:08:52;102416.22;;;16.06
45565;BMP280;31280;40.408;17.282;2022-12-29T11:11:35;102423.16;;;16.10
45565;BMP280;31280;40.408;17.282;2022-12-29T11:14:21;102409.91;;;16.15
45565;BMP280;31280;40.408;17.282;2022-12-29T11:17:02;102410.63;;;16.19
45565;BMP280;31280;40.408;17.282;2022-12-29T11:19:31;102410.56;;;16.23
45565;BMP280;31280;40.408;17.282;2022-12-29T11:24:46;102408.34;;;16.14
45565;BMP280;31280;40.408;17.282;2022-12-29T11:27:24;102406.22;;;15.99
45565;BMP280;31280;40.408;17.282;2022-12-29T11:29:52;102408.50;;;16.04
45565;BMP280;31280;40.408;17.282;2022-12-29T11:32:23;102399.91;;;16.06
45565;BMP280;31280;40.408;17.282;2022-12-29T11:34:50;102406.16;;;16.06
45565;BMP280;31280;40.408;17.282;2022-12-29T11:37:37;102402.25;;;16.04
45565;BMP280;31280;40.408;17.282;2022-12-29T11:40:06;102375.78;;;15.78
45565;BMP280;31280;40.408;17.282;2022-12-29T11:42:40;102392.72;;;15.92
45565;BMP280;31280;40.408;17.282;2022-12-29T11:45:16;102387.69;;;15.91
45565;BMP280;31280;40.408;17.282;2022-12-29T11:47:46;102363.88;;;15.72
45565;BMP280;31280;40.408;17.282;2022-12-29T11:50:18;102385.41;;;15.86
45565;BMP280;31280;40.408;17.282;2022-12-29T11:52:46;102372.69;;;15.80
45565;BMP280;31280;40.408;17.282;2022-12-29T11:55:23;102379.66;;;15.81
45565;BMP280;31280;40.408;17.282;2022-12-29T11:57:52;102376.13;;;15.84
45565;BMP280;31280;40.408;17.282;2022-12-29T12:00:24;102379.25;;;15.82
45565;BMP280;31280;40.408;17.282;2022-12-29T12:03:01;102374.94;;;15.85
45565;BMP280;31280;40.408;17.282;2022-12-29T12:05:51;102367.94;;;15.87
45565;BMP280;31280;40.408;17.282;2022-12-29T12:08:36;102375.63;;;15.92
45565;BMP280;31280;40.408;17.282;2022-12-29T12:11:18;102361.22;;;15.95
45565;BMP280;31280;40.408;17.282;2022-12-29T12:13:58;102360.00;;;15.99
45565;BMP280;31280;40.408;17.282;2022-12-29T12:16:41;102353.41;;;16.00
45565;BMP280;31280;40.408;17.282;2022-12-29T12:19:23;102348.03;;;15.93
45565;BMP280;31280;40.408;17.282;2022-12-29T12:22:03;102358.84;;;16.00
45565;BMP280;31280;40.408;17.282;2022-12-29T12:24:42;102350.25;;;16.02
45565;BMP280;31280;40.408;17.282;2022-12-29T12:27:26;102350.59;;;16.04
45565;BMP280;31280;40.408;17.282;2022-12-29T12:30:15;102344.75;;;16.09
45565;BMP280;31280;40.408;17.282;2022-12-29T12:35:45;102339.38;;;16.02
45565;BMP280;31280;40.408;17.282;2022-12-29T13:00:15;102317.75;;;16.89
45565;BMP280;31280;40.408;17.282;2022-12-29T13:05:29;102326.25;;;16.72
45565;BMP280;31280;40.408;17.282;2022-12-29T13:16:31;102317.59;;;16.54
45565;BMP280;31280;40.408;17.282;2022-12-29T13:33:51;102314.47;;;16.55
45565;BMP280;31280;40.408;17.282;2022-12-29T13:36:27;102313.84;;;16.48
45565;BMP280;31280;40.408;17.282;2022-12-29T13:39:18;102313.91;;;16.41
45565;BMP280;31280;40.408;17.282;2022-12-29T13:41:55;102308.41;;;16.44
45565;BMP280;31280;40.408;17.282;2022-12-29T13:44:46;102309.66;;;16.63
45565;BMP280;31280;40.408;17.282;2022-12-29T13:50:00;102308.66;;;16.76
45565;BMP280;31280;40.408;17.282;2022-12-29T13:55:44;102285.06;;;16.89
45565;BMP280;31280;40.408;17.282;2022-12-29T14:04:12;102310.81;;;17.07
45565;BMP280;31280;40.408;17.282;2022-12-29T14:06:38;102312.34;;;17.08
45565;BMP280;31280;40.408;17.282;2022-12-29T14:14:53;102310.50;;;16.82
45565;BMP280;31280;40.408;17.282;2022-12-29T14:17:20;102305.56;;;16.74
45565;BMP280;31280;40.408;17.282;2022-12-29T14:19:51;102307.53;;;16.73
45565;BMP280;31280;40.408;17.282;2022-12-29T14:22:28;102308.09;;;16.65
45565;BMP280;31280;40.408;17.282;2022-12-29T14:24:54;102317.09;;;16.59
45565;BMP280;31280;40.408;17.282;2022-12-29T14:29:50;102307.31;;;16.42
45565;BMP280;31280;40.408;17.282;2022-12-29T14:37:30;102310.31;;;16.25
45565;BMP280;31280;40.408;17.282;2022-12-29T14:40:24;102316.56;;;16.22
45565;BMP280;31280;40.408;17.282;2022-12-29T14:42:53;102313.59;;;16.13
45565;BMP280;31280;40.408;17.282;2022-12-29T14:47:47;102310.72;;;15.97
45565;BMP280;31280;40.408;17.282;2022-12-29T14:50:15;102321.66;;;15.90
45565;BMP280;31280;40.408;17.282;2022-12-29T14:52:57;102312.91;;;15.80
45565;BMP280;31280;40.408;17.282;2022-12-29T14:55:38;102317.25;;;15.74
45565;BMP280;31280;40.408;17.282;2022-12-29T14:58:17;102318.09;;;15.67
45565;BMP280;31280;40.408;17.282;2022-12-29T15:00:44;102318.97;;;15.61
45565;BMP280;31280;40.408;17.282;2022-12-29T15:03:22;102312.41;;;15.58
45565;BMP280;31280;40.408;17.282;2022-12-29T15:05:56;102313.59;;;15.54
45565;BMP280;31280;40.408;17.282;2022-12-29T15:08:26;102317.56;;;15.50
45565;BMP280;31280;40.408;17.282;2022-12-29T15:10:57;102319.53;;;15.46
45565;BMP280;31280;40.408;17.282;2022-12-29T15:13:33;102321.50;;;15.42
45565;BMP280;31280;40.408;17.282;2022-12-29T15:16:00;102310.41;;;15.29
45565;BMP280;31280;40.408;17.282;2022-12-29T15:18:30;102315.44;;;15.31
45565;BMP280;31280;40.408;17.282;2022-12-29T15:21:03;102323.66;;;15.24
45565;BMP280;31280;40.408;17.282;2022-12-29T15:23:31;102317.94;;;15.15
45565;BMP280;31280;40.408;17.282;2022-12-29T15:26:03;102302.19;;;15.00
45565;BMP280;31280;40.408;17.282;2022-12-29T15:28:38;102295.66;;;14.94
45565;BMP280;31280;40.408;17.282;2022-12-29T15:31:09;102308.81;;;14.96
45565;BMP280;31280;40.408;17.282;2022-12-29T15:33:40;102299.63;;;14.83
45565;BMP280;31280;40.408;17.282;2022-12-29T15:36:12;102310.50;;;14.83
45565;BMP280;31280;40.408;17.282;2022-12-29T15:38:38;102307.03;;;14.79
45565;BMP280;31280;40.408;17.282;2022-12-29T15:41:12;102302.81;;;14.74
45565;BMP280;31280;40.408;17.282;2022-12-29T15:43:47;102305.94;;;14.73
45565;BMP280;31280;40.408;17.282;2022-12-29T15:46:15;102303.25;;;14.66
45565;BMP280;31280;40.408;17.282;2022-12-29T15:48:41;102304.06;;;14.63
45565;BMP280;31280;40.408;17.282;2022-12-29T15:51:29;102313.75;;;14.64
45565;BMP280;31280;40.408;17.282;2022-12-29T15:53:57;102300.63;;;14.56
45565;BMP280;31280;40.408;17.282;2022-12-29T15:56:23;102288.31;;;14.48
45565;BMP280;31280;40.408;17.282;2022-12-29T15:58:51;102308.00;;;14.55
45565;BMP280;31280;40.408;17.282;2022-12-29T16:03:54;102313.44;;;14.52
45565;BMP280;31280;40.408;17.282;2022-12-29T16:06:32;102321.19;;;14.50
45565;BMP280;31280;40.408;17.282;2022-12-29T16:09:16;102314.66;;;14.47
45565;BMP280;31280;40.408;17.282;2022-12-29T16:11:47;102320.88;;;14.44
45565;BMP280;31280;40.408;17.282;2022-12-29T16:14:19;102315.88;;;14.40
45565;BMP280;31280;40.408;17.282;2022-12-29T16:16:46;102309.72;;;14.36
45565;BMP280;31280;40.408;17.282;2022-12-29T16:19:26;102292.81;;;14.18
45565;BMP280;31280;40.408;17.282;2022-12-29T16:21:53;102306.69;;;14.27
45565;BMP280;31280;40.408;17.282;2022-12-29T16:24:24;102308.63;;;14.23
45565;BMP280;31280;40.408;17.282;2022-12-29T16:29:32;102295.56;;;14.04
45565;BMP280;31280;40.408;17.282;2022-12-29T16:31:59;102313.72;;;14.14